Main page
METAR-TAF:

METAR-TAF

Airports :

Norwich Airport

Norwich, England

latitude: 52-38N, longitude: 001-18E, elevation: 14 m

Current weather observation

The report was made 21 minutes ago, at 06:20 UTC
Wind 14 kt from the West
Temperature 10°C
Humidity 87%
Pressure 991 hPa
Visibility 10 km or more

METAR: EGSH 050620Z AUTO 27014KT 9999 SCT014/// BKN019/// BKN030/// 10/08 Q0991

Time: 07:41 (06:41 UTC)

Forecast

The report was made 31 minutes ago, at 06:10 UTC
Forecast valid from 05 at 06 UTC to 05 at 12 UTC
Wind 12 kt from the West/Southwest
Visibility 10 km or more
Scattered clouds at a height of 3000 ft
Becoming
from 05 at 06 UTC to 05 at 08 UTC
Wind 12 kt from the North/Northwest
Temporary
from 05 at 06 UTC to 05 at 12 UTC
Visibility: 6000 m
Broken clouds at a height of 1000 ft
rain

TAF: EGSH 050610Z 0506/0512 25012KT 9999 SCT030 BECMG 0506/0508 33012KT TEMPO 0506/0512 6000 RA BKN010

Weather observations and forecasts of more than 4000 airports (METAR and TAF reports).

The available stations are represented by yellow and red dots on the map.

Hover mouse over dot to see the name of the station.

Then click to see weather observations and forecasts.

To change the map : click on the green buttons with a black cross to zoom in, on the green button with a dash to zoom out, or on the green arrows for adjacent maps.


METAR-TAF: